createdAt,value
2022-11-07T00:00:12.489Z,0.00
2022-11-07T00:01:12.450Z,0.00
2022-11-07T00:02:12.646Z,0.00
2022-11-07T00:03:12.806Z,0.00
2022-11-07T00:04:12.424Z,0.00
2022-11-07T00:05:12.406Z,0.00
2022-11-07T00:06:12.391Z,0.00
2022-11-07T00:07:12.376Z,0.00
2022-11-07T00:08:12.424Z,0.00
2022-11-07T00:09:12.354Z,0.00
2022-11-07T00:10:12.357Z,0.00
2022-11-07T00:11:12.335Z,0.00
2022-11-07T00:12:12.373Z,0.00
2022-11-07T00:13:12.611Z,0.00
2022-11-07T00:14:12.316Z,0.00
2022-11-07T00:15:12.311Z,0.00
2022-11-07T00:16:12.294Z,0.00
2022-11-07T00:17:12.272Z,0.00
2022-11-07T00:18:12.281Z,0.00
2022-11-07T00:19:12.245Z,0.00
2022-11-07T00:20:12.240Z,0.00
2022-11-07T00:21:12.280Z,0.00
2022-11-07T00:22:12.216Z,0.00
2022-11-07T00:23:12.592Z,0.00
2022-11-07T00:24:12.193Z,0.00
2022-11-07T00:25:12.186Z,0.00
2022-11-07T00:26:12.192Z,0.00
2022-11-07T00:27:12.297Z,0.00
2022-11-07T00:28:12.267Z,0.00
2022-11-07T00:29:12.148Z,0.00
2022-11-07T00:30:12.128Z,0.00
2022-11-07T00:31:12.123Z,0.00
2022-11-07T00:32:12.127Z,0.00
2022-11-07T00:33:12.448Z,0.00
2022-11-07T00:34:12.141Z,0.00
2022-11-07T00:35:12.075Z,0.00
2022-11-07T00:36:12.056Z,0.00
2022-11-07T00:37:12.058Z,0.00
2022-11-07T00:38:12.103Z,0.00
2022-11-07T00:39:12.040Z,0.00
2022-11-07T00:40:12.009Z,0.00
2022-11-07T00:41:12.015Z,0.00
2022-11-07T00:42:11.988Z,0.00
2022-11-07T00:43:12.386Z,0.00
2022-11-07T00:44:11.990Z,0.00
2022-11-07T00:45:11.969Z,0.00
2022-11-07T00:46:11.978Z,0.00
2022-11-07T00:47:11.935Z,0.00
2022-11-07T00:48:11.964Z,0.00
2022-11-07T00:49:11.923Z,0.00
2022-11-07T00:50:11.907Z,0.00
2022-11-07T00:51:11.914Z,0.00
2022-11-07T00:52:11.889Z,0.00
2022-11-07T00:53:12.277Z,0.00
2022-11-07T00:54:11.874Z,0.00
2022-11-07T00:55:11.860Z,0.00
2022-11-07T00:56:11.882Z,0.00
2022-11-07T00:57:11.850Z,0.00
2022-11-07T00:58:14.236Z,0.00
2022-11-07T00:59:11.804Z,0.00
2022-11-07T01:00:11.817Z,0.00
2022-11-07T01:01:11.818Z,0.00
2022-11-07T01:02:11.914Z,0.00
2022-11-07T01:03:11.871Z,0.00
2022-11-07T01:04:11.767Z,0.00
2022-11-07T01:05:11.788Z,0.00
2022-11-07T01:06:11.731Z,0.00
2022-11-07T01:07:11.716Z,0.00
2022-11-07T01:08:11.707Z,0.00
2022-11-07T01:09:11.716Z,0.00
2022-11-07T01:10:11.702Z,0.00
2022-11-07T01:11:11.729Z,0.00
2022-11-07T01:12:11.673Z,0.00
2022-11-07T01:13:11.950Z,0.00
2022-11-07T01:14:11.638Z,0.00
2022-11-07T01:15:11.640Z,0.00
2022-11-07T01:16:11.639Z,0.00
2022-11-07T01:17:11.620Z,0.00
2022-11-07T01:18:11.602Z,0.00
2022-11-07T01:19:11.609Z,0.00
2022-11-07T01:20:11.571Z,0.00
2022-11-07T01:21:16.326Z,0.00
2022-11-07T01:22:11.651Z,0.00
2022-11-07T01:23:11.697Z,0.00
2022-11-07T01:24:11.544Z,0.00
2022-11-07T01:25:11.548Z,0.00
2022-11-07T01:26:11.523Z,0.00
2022-11-07T01:27:11.506Z,0.00
2022-11-07T01:28:11.487Z,0.00
2022-11-07T01:29:11.499Z,0.00
2022-11-07T01:30:11.465Z,0.00
2022-11-07T01:31:11.447Z,0.00
2022-11-07T01:32:11.474Z,0.00
2022-11-07T01:33:11.853Z,0.00
2022-11-07T01:34:11.413Z,0.00
2022-11-07T01:35:11.481Z,0.00
2022-11-07T01:36:11.392Z,0.00
2022-11-07T01:37:11.395Z,0.00
2022-11-07T01:38:11.370Z,0.00
2022-11-07T01:39:11.382Z,0.00
2022-11-07T01:40:11.357Z,0.00
2022-11-07T01:41:11.353Z,0.00
2022-11-07T01:42:11.329Z,0.00
2022-11-07T01:43:11.485Z,0.00
2022-11-07T01:44:11.327Z,0.00
2022-11-07T01:45:11.289Z,0.00
2022-11-07T01:46:11.348Z,0.00
2022-11-07T01:47:11.298Z,0.00
2022-11-07T01:48:11.296Z,0.00
2022-11-07T01:49:11.252Z,0.00
2022-11-07T01:50:11.274Z,0.00
2022-11-07T01:51:11.225Z,0.00
2022-11-07T01:52:11.232Z,0.00
2022-11-07T01:53:11.209Z,0.00
2022-11-07T01:54:11.211Z,0.00
2022-11-07T01:55:11.188Z,0.00
2022-11-07T01:56:11.179Z,0.00
2022-11-07T01:57:11.158Z,0.00
2022-11-07T01:58:11.171Z,0.00
2022-11-07T01:59:11.164Z,0.00
2022-11-07T02:00:11.126Z,0.00
2022-11-07T02:01:11.115Z,0.00
2022-11-07T02:02:11.351Z,0.00
2022-11-07T02:03:11.187Z,0.00
2022-11-07T02:04:11.126Z,0.00
2022-11-07T02:05:11.077Z,0.00
2022-11-07T02:06:11.059Z,0.00
2022-11-07T02:07:11.056Z,0.00
2022-11-07T02:08:11.068Z,0.00
2022-11-07T02:09:11.037Z,0.00
2022-11-07T02:10:11.054Z,0.00
2022-11-07T02:11:11.004Z,0.00
2022-11-07T02:12:10.996Z,0.00
2022-11-07T02:13:10.996Z,0.00
2022-11-07T02:14:10.972Z,0.00
2022-11-07T02:15:11.010Z,0.00
2022-11-07T02:16:10.949Z,0.00
2022-11-07T02:17:10.938Z,0.00
2022-11-07T02:18:10.941Z,0.00
2022-11-07T02:19:10.926Z,0.00
2022-11-07T02:20:10.928Z,0.00
2022-11-07T02:21:10.921Z,0.00
2022-11-07T02:22:10.883Z,0.00
2022-11-07T02:23:10.926Z,0.00
2022-11-07T02:24:10.863Z,0.00
2022-11-07T02:25:10.865Z,0.00
2022-11-07T02:26:10.867Z,0.00
2022-11-07T02:27:10.848Z,0.00
2022-11-07T02:28:10.820Z,0.00
2022-11-07T02:29:10.861Z,0.00
2022-11-07T02:30:10.797Z,0.00
2022-11-07T02:31:10.819Z,0.00
2022-11-07T02:32:10.787Z,0.00
2022-11-07T02:33:10.808Z,0.00
2022-11-07T02:34:10.775Z,0.00
2022-11-07T02:35:10.737Z,0.00
2022-11-07T02:36:10.747Z,0.00
2022-11-07T02:37:10.720Z,0.00
2022-11-07T02:38:10.746Z,0.00
2022-11-07T02:39:10.729Z,0.00
2022-11-07T02:40:10.695Z,0.00
2022-11-07T02:41:10.682Z,0.00
2022-11-07T02:42:10.680Z,0.00
2022-11-07T02:43:10.658Z,0.00
2022-11-07T02:44:10.665Z,0.00
2022-11-07T02:45:10.663Z,0.00
2022-11-07T02:46:10.621Z,0.00
2022-11-07T02:47:10.605Z,0.00
2022-11-07T02:48:10.606Z,0.00
2022-11-07T02:49:10.580Z,0.00
2022-11-07T02:50:10.607Z,0.00
2022-11-07T02:51:10.586Z,0.00
2022-11-07T02:52:10.568Z,0.00
2022-11-07T02:53:10.550Z,0.00
2022-11-07T02:54:10.528Z,0.00
2022-11-07T02:55:10.520Z,0.00
2022-11-07T02:56:10.653Z,0.00
2022-11-07T02:57:10.493Z,0.00
2022-11-07T02:58:10.483Z,0.00
2022-11-07T02:59:10.470Z,0.00
2022-11-07T03:00:10.553Z,0.00
2022-11-07T03:01:10.487Z,0.00
2022-11-07T03:02:10.601Z,0.00
2022-11-07T03:03:10.425Z,0.00
2022-11-07T03:04:10.467Z,0.00
2022-11-07T03:05:10.406Z,0.00
2022-11-07T03:06:10.415Z,0.00
2022-11-07T03:07:10.388Z,0.00
2022-11-07T03:08:10.392Z,0.00
2022-11-07T03:09:10.361Z,0.00
2022-11-07T03:10:10.450Z,0.00
2022-11-07T03:11:10.361Z,0.00
2022-11-07T03:12:10.327Z,0.00
2022-11-07T03:13:10.406Z,0.00
2022-11-07T03:14:10.340Z,0.00
2022-11-07T03:15:10.430Z,0.00
2022-11-07T03:16:10.293Z,0.00
2022-11-07T03:17:10.292Z,0.00
2022-11-07T03:18:10.264Z,0.00
2022-11-07T03:19:10.299Z,0.00
2022-11-07T03:20:10.238Z,0.00
2022-11-07T03:21:10.224Z,0.00
2022-11-07T03:22:10.217Z,0.00
2022-11-07T03:23:10.203Z,0.00
2022-11-07T03:24:10.245Z,0.00
2022-11-07T03:25:10.199Z,0.00
2022-11-07T03:26:10.176Z,0.00
2022-11-07T03:27:10.159Z,0.00
2022-11-07T03:28:10.156Z,0.00
2022-11-07T03:29:10.205Z,0.00
2022-11-07T03:30:10.146Z,0.00
2022-11-07T03:31:10.114Z,0.00
2022-11-07T03:32:10.118Z,0.00
2022-11-07T03:33:10.150Z,0.00
2022-11-07T03:34:10.092Z,0.00
2022-11-07T03:35:10.097Z,0.00
2022-11-07T03:36:10.065Z,0.00
2022-11-07T03:37:10.049Z,0.00
2022-11-07T03:38:10.039Z,0.00
2022-11-07T03:39:10.045Z,0.00
2022-11-07T03:40:10.057Z,0.00
2022-11-07T03:41:10.007Z,0.00
2022-11-07T03:42:10.012Z,0.00
2022-11-07T03:43:10.032Z,0.00
2022-11-07T03:44:09.973Z,0.00
2022-11-07T03:45:09.965Z,0.00
2022-11-07T03:46:09.957Z,0.00
2022-11-07T03:47:09.976Z,0.00
2022-11-07T03:48:09.943Z,0.00
2022-11-07T03:49:09.947Z,0.00
2022-11-07T03:50:09.906Z,0.00
2022-11-07T03:51:09.935Z,0.00
2022-11-07T03:52:09.883Z,0.00
2022-11-07T03:53:09.880Z,0.00
2022-11-07T03:54:09.874Z,0.00
2022-11-07T03:55:09.851Z,0.00
2022-11-07T03:56:09.874Z,0.00
2022-11-07T03:57:09.857Z,0.00
2022-11-07T03:58:09.820Z,0.00
2022-11-07T03:59:09.832Z,0.00
2022-11-07T04:00:09.817Z,0.00
2022-11-07T04:01:09.786Z,0.00
2022-11-07T04:02:09.910Z,0.00
2022-11-07T04:03:09.776Z,0.00
2022-11-07T04:04:09.752Z,0.00
2022-11-07T04:05:09.797Z,0.00
2022-11-07T04:06:09.734Z,0.00
2022-11-07T04:07:09.758Z,0.00
2022-11-07T04:08:09.709Z,0.00
2022-11-07T04:09:09.721Z,0.00
2022-11-07T04:10:09.688Z,0.00
2022-11-07T04:11:09.692Z,0.00
2022-11-07T04:12:09.773Z,0.00
2022-11-07T04:13:09.665Z,0.00
2022-11-07T04:14:09.643Z,0.00
2022-11-07T04:15:09.629Z,0.00
2022-11-07T04:16:13.590Z,0.00
2022-11-07T04:17:09.621Z,0.00
2022-11-07T04:18:09.595Z,0.00
2022-11-07T04:19:09.591Z,0.00
2022-11-07T04:20:09.574Z,0.00
2022-11-07T04:21:09.610Z,0.00
2022-11-07T04:22:09.583Z,0.00
2022-11-07T04:23:09.570Z,0.00
2022-11-07T04:24:09.529Z,0.00
2022-11-07T04:25:09.527Z,0.00
2022-11-07T04:26:09.516Z,0.00
2022-11-07T04:27:09.520Z,0.00
2022-11-07T04:28:09.605Z,0.00
2022-11-07T04:29:09.517Z,0.00
2022-11-07T04:30:09.465Z,0.00
2022-11-07T04:31:09.453Z,0.00
2022-11-07T04:32:09.475Z,0.00
2022-11-07T04:33:09.444Z,0.00
2022-11-07T04:34:09.437Z,0.00
2022-11-07T04:35:09.411Z,0.00
2022-11-07T04:36:09.403Z,0.00
2022-11-07T04:37:09.419Z,0.00
2022-11-07T04:38:09.405Z,0.00
2022-11-07T04:39:09.382Z,0.00
2022-11-07T04:40:09.366Z,0.00
2022-11-07T04:41:09.344Z,0.00
2022-11-07T04:42:09.358Z,0.00
2022-11-07T04:43:09.458Z,0.00
2022-11-07T04:44:09.327Z,0.00
2022-11-07T04:45:09.330Z,0.00
2022-11-07T04:46:09.300Z,0.00
2022-11-07T04:47:09.308Z,0.00
2022-11-07T04:48:09.293Z,0.00
2022-11-07T04:49:09.289Z,0.00
2022-11-07T04:50:09.252Z,0.00
2022-11-07T04:51:09.262Z,0.00
2022-11-07T04:52:09.223Z,0.00
2022-11-07T04:53:09.217Z,0.00
2022-11-07T04:54:09.229Z,0.00
2022-11-07T04:55:09.201Z,0.00
2022-11-07T04:56:09.200Z,0.00
2022-11-07T04:57:09.173Z,0.00
2022-11-07T04:58:09.160Z,0.00
2022-11-07T04:59:09.204Z,0.00
2022-11-07T05:00:09.155Z,0.00
2022-11-07T05:01:09.132Z,0.00
2022-11-07T05:02:09.228Z,0.00
2022-11-07T05:03:09.197Z,0.00
2022-11-07T05:04:09.110Z,0.00
2022-11-07T05:05:09.134Z,0.00
2022-11-07T05:06:09.075Z,0.00
2022-11-07T05:07:09.069Z,0.00
2022-11-07T05:08:09.079Z,0.00
2022-11-07T05:09:09.055Z,0.00
2022-11-07T05:10:12.131Z,0.00
2022-11-07T05:11:09.018Z,0.00
2022-11-07T05:12:09.006Z,0.00
2022-11-07T05:13:09.019Z,0.00
2022-11-07T05:14:09.009Z,0.00
2022-11-07T05:15:08.995Z,0.00
2022-11-07T05:16:09.002Z,0.00
2022-11-07T05:17:08.948Z,0.00
2022-11-07T05:18:08.939Z,0.00
2022-11-07T05:19:08.927Z,0.00
2022-11-07T05:20:08.939Z,0.00
2022-11-07T05:21:08.926Z,0.00
2022-11-07T05:22:08.921Z,0.00
2022-11-07T05:23:08.883Z,0.00
2022-11-07T05:24:08.875Z,0.00
2022-11-07T05:25:08.879Z,0.00
2022-11-07T05:26:08.858Z,0.00
2022-11-07T05:27:08.862Z,0.00
2022-11-07T05:28:08.875Z,0.00
2022-11-07T05:29:08.834Z,0.00
2022-11-07T05:30:08.813Z,0.00
2022-11-07T05:31:08.803Z,0.00
2022-11-07T05:32:08.810Z,0.00
2022-11-07T05:33:08.809Z,0.00
2022-11-07T05:34:14.383Z,0.00
2022-11-07T05:35:09.906Z,0.00
2022-11-07T05:36:08.748Z,0.00
2022-11-07T05:37:08.730Z,0.00
2022-11-07T05:38:08.735Z,0.00
2022-11-07T05:39:08.758Z,0.00
2022-11-07T05:40:08.697Z,0.00
2022-11-07T05:41:08.682Z,0.00
2022-11-07T05:42:08.703Z,0.00
2022-11-07T05:43:08.665Z,0.00
2022-11-07T05:44:08.663Z,0.00
2022-11-07T05:45:08.665Z,0.00
2022-11-07T05:46:08.647Z,0.00
2022-11-07T05:47:08.618Z,0.00
2022-11-07T05:48:08.640Z,0.00
2022-11-07T05:49:08.608Z,0.00
2022-11-07T05:50:08.638Z,0.00
2022-11-07T05:51:08.574Z,0.00
2022-11-07T05:52:08.559Z,0.00
2022-11-07T05:53:08.676Z,0.00
2022-11-07T05:54:08.566Z,0.00
2022-11-07T05:55:08.549Z,4.00
2022-11-07T05:56:08.548Z,4.00
2022-11-07T05:57:08.504Z,0.00
2022-11-07T05:58:08.496Z,0.00
2022-11-07T05:59:08.506Z,4.00
2022-11-07T06:00:08.479Z,4.00
2022-11-07T06:01:08.512Z,0.00
2022-11-07T06:02:08.614Z,4.00
2022-11-07T06:03:08.496Z,4.00
2022-11-07T06:04:08.554Z,8.00
2022-11-07T06:05:08.418Z,4.00
2022-11-07T06:06:08.413Z,4.00
2022-11-07T06:07:08.416Z,8.00
2022-11-07T06:08:08.397Z,8.00
2022-11-07T06:09:08.390Z,8.00
2022-11-07T06:10:08.392Z,12.00
2022-11-07T06:11:08.375Z,12.00
2022-11-07T06:12:08.354Z,16.00
2022-11-07T06:13:08.326Z,16.00
2022-11-07T06:14:08.330Z,16.00
2022-11-07T06:15:08.303Z,16.00
2022-11-07T06:16:08.795Z,16.00
2022-11-07T06:17:08.313Z,16.00
2022-11-07T06:18:08.288Z,20.00
2022-11-07T06:19:08.261Z,20.00
2022-11-07T06:20:08.281Z,24.00
2022-11-07T06:21:08.268Z,24.00
2022-11-07T06:22:08.245Z,28.00
2022-11-07T06:23:08.224Z,28.00
2022-11-07T06:24:13.905Z,32.00
2022-11-07T06:25:09.198Z,36.00
2022-11-07T06:26:08.203Z,40.00
2022-11-07T06:27:08.179Z,40.00
2022-11-07T06:28:08.189Z,44.00
2022-11-07T06:29:08.164Z,48.00
2022-11-07T06:30:08.161Z,48.00
2022-11-07T06:31:08.176Z,52.00
2022-11-07T06:32:08.116Z,52.00
2022-11-07T06:33:08.107Z,56.00
2022-11-07T06:34:08.115Z,64.00
2022-11-07T06:35:08.161Z,68.00
2022-11-07T06:36:08.092Z,72.00
2022-11-07T06:37:08.065Z,76.00
2022-11-07T06:38:08.061Z,80.00
2022-11-07T06:39:08.042Z,84.00
2022-11-07T06:40:08.037Z,84.00
2022-11-07T06:41:08.055Z,88.00
2022-11-07T06:42:08.006Z,92.00
2022-11-07T06:43:08.050Z,96.00
2022-11-07T06:44:08.018Z,100.00
2022-11-07T06:45:07.978Z,104.00
2022-11-07T06:46:07.984Z,112.00
2022-11-07T06:47:08.017Z,116.00
2022-11-07T06:48:07.944Z,116.00
2022-11-07T06:49:07.932Z,120.00
2022-11-07T06:50:07.919Z,124.00
2022-11-07T06:51:07.951Z,124.00
2022-11-07T06:52:07.929Z,124.00
2022-11-07T06:53:07.890Z,124.00
2022-11-07T06:54:07.903Z,120.00
2022-11-07T06:55:07.864Z,120.00
2022-11-07T06:56:07.851Z,124.00
2022-11-07T06:57:07.840Z,124.00
2022-11-07T06:58:07.855Z,124.00
2022-11-07T06:59:07.844Z,120.00
2022-11-07T07:00:07.810Z,116.00
2022-11-07T07:01:07.892Z,116.00
2022-11-07T07:02:07.819Z,112.00
2022-11-07T07:03:07.836Z,108.00
2022-11-07T07:04:07.784Z,108.00
2022-11-07T07:05:07.778Z,108.00
2022-11-07T07:06:07.739Z,112.00
2022-11-07T07:07:07.731Z,112.00
2022-11-07T07:08:07.829Z,116.00
2022-11-07T07:09:07.718Z,120.00
2022-11-07T07:10:07.712Z,120.00
2022-11-07T07:11:07.688Z,124.00
2022-11-07T07:12:07.722Z,124.00
2022-11-07T07:13:07.684Z,128.00
2022-11-07T07:14:11.642Z,128.00
2022-11-07T07:15:07.642Z,132.00
2022-11-07T07:16:07.641Z,140.00
2022-11-07T07:17:07.647Z,148.00
2022-11-07T07:18:07.681Z,152.00
2022-11-07T07:19:07.627Z,160.00
2022-11-07T07:20:07.723Z,164.00
2022-11-07T07:21:07.577Z,168.00
2022-11-07T07:22:07.580Z,176.00
2022-11-07T07:23:07.556Z,180.00
2022-11-07T07:24:07.670Z,184.00
2022-11-07T07:25:07.536Z,188.00
2022-11-07T07:26:07.530Z,196.00
2022-11-07T07:27:07.514Z,200.00
2022-11-07T07:28:07.531Z,212.00
2022-11-07T07:29:07.534Z,212.00
2022-11-07T07:30:07.475Z,212.00
2022-11-07T07:31:07.493Z,204.00
2022-11-07T07:32:07.474Z,196.00
2022-11-07T07:33:07.451Z,192.00
2022-11-07T07:34:07.449Z,188.00
2022-11-07T07:35:07.429Z,176.00
2022-11-07T07:36:07.434Z,168.00
2022-11-07T07:37:07.410Z,164.00
2022-11-07T07:38:07.419Z,160.00
2022-11-07T07:39:07.393Z,156.00
2022-11-07T07:40:07.480Z,152.00
2022-11-07T07:41:07.463Z,156.00
2022-11-07T07:42:07.346Z,156.00
2022-11-07T07:43:07.387Z,152.00
2022-11-07T07:44:07.334Z,164.00
2022-11-07T07:45:07.318Z,168.00
2022-11-07T07:46:07.332Z,172.00
2022-11-07T07:47:11.307Z,180.00
2022-11-07T07:48:07.281Z,188.00
2022-11-07T07:49:07.309Z,204.00
2022-11-07T07:50:07.267Z,208.00
2022-11-07T07:51:07.267Z,204.00
2022-11-07T07:52:07.247Z,196.00
2022-11-07T07:53:13.939Z,196.00
2022-11-07T07:54:07.253Z,204.00
2022-11-07T07:55:07.225Z,220.00
2022-11-07T07:56:07.316Z,200.00
2022-11-07T07:57:07.183Z,208.00
2022-11-07T07:58:07.192Z,200.00
2022-11-07T07:59:07.182Z,188.00
2022-11-07T08:00:07.151Z,176.00
2022-11-07T08:01:07.354Z,180.00
2022-11-07T08:02:07.201Z,188.00
2022-11-07T08:03:07.116Z,200.00
2022-11-07T08:04:07.110Z,212.00
2022-11-07T08:05:07.110Z,208.00
2022-11-07T08:06:07.079Z,220.00
2022-11-07T08:07:07.089Z,228.00
2022-11-07T08:08:07.057Z,268.00
2022-11-07T08:09:07.056Z,256.00
2022-11-07T08:10:34.886Z,260.00
2022-11-07T08:11:07.031Z,244.00
2022-11-07T08:12:07.142Z,260.00
2022-11-07T08:13:07.011Z,252.00
2022-11-07T08:14:06.992Z,244.00
2022-11-07T08:15:06.986Z,236.00
2022-11-07T08:16:06.981Z,240.00
2022-11-07T08:17:06.971Z,256.00
2022-11-07T08:18:06.948Z,236.00
2022-11-07T08:19:07.003Z,240.00
2022-11-07T08:20:06.938Z,244.00
2022-11-07T08:21:06.915Z,244.00
2022-11-07T08:22:06.935Z,244.00
2022-11-07T08:23:09.817Z,232.00
2022-11-07T08:24:06.883Z,240.00
2022-11-07T08:25:06.896Z,236.00
2022-11-07T08:26:06.885Z,276.00
2022-11-07T08:27:06.855Z,284.00
2022-11-07T08:28:06.977Z,244.00
2022-11-07T08:29:06.830Z,268.00
2022-11-07T08:30:06.814Z,260.00
2022-11-07T08:31:06.822Z,256.00
2022-11-07T08:32:06.796Z,296.00
2022-11-07T08:33:06.870Z,292.00
2022-11-07T08:34:06.959Z,300.00
2022-11-07T08:35:06.761Z,288.00
2022-11-07T08:36:06.749Z,304.00
2022-11-07T08:37:06.738Z,276.00
2022-11-07T08:38:06.734Z,284.00
2022-11-07T08:39:06.740Z,288.00
2022-11-07T08:40:06.748Z,316.00
2022-11-07T08:41:06.711Z,296.00
2022-11-07T08:42:06.684Z,236.00
2022-11-07T08:43:06.689Z,312.00
2022-11-07T08:44:06.696Z,320.00
2022-11-07T08:45:06.657Z,248.00
2022-11-07T08:46:06.666Z,260.00
2022-11-07T08:47:08.559Z,308.00
2022-11-07T08:48:06.624Z,272.00
2022-11-07T08:49:06.607Z,236.00
2022-11-07T08:50:06.614Z,248.00
2022-11-07T08:51:06.606Z,268.00
2022-11-07T08:52:06.577Z,228.00
2022-11-07T08:53:06.563Z,208.00
2022-11-07T08:54:06.552Z,212.00
2022-11-07T08:55:06.548Z,212.00
2022-11-07T08:56:06.549Z,216.00
2022-11-07T08:57:06.547Z,232.00
2022-11-07T08:58:06.507Z,220.00
2022-11-07T08:59:06.510Z,236.00
2022-11-07T09:00:06.521Z,240.00
2022-11-07T09:01:06.646Z,268.00
2022-11-07T09:04:06.566Z,252.00
2022-11-07T09:05:06.440Z,252.00
2022-11-07T09:06:06.418Z,260.00
2022-11-07T09:07:06.474Z,280.00
2022-11-07T09:08:06.419Z,284.00
2022-11-07T09:09:06.387Z,320.00
2022-11-07T09:10:06.373Z,368.00
2022-11-07T09:11:06.410Z,324.00
2022-11-07T09:12:06.396Z,332.00
2022-11-07T09:13:06.367Z,340.00
2022-11-07T09:14:06.372Z,372.00
2022-11-07T09:15:06.334Z,364.00
2022-11-07T09:16:06.327Z,372.00
2022-11-07T09:17:06.312Z,388.00
2022-11-07T09:18:06.297Z,396.00
2022-11-07T09:19:06.281Z,404.00
2022-11-07T09:20:06.263Z,408.00
2022-11-07T09:21:06.264Z,408.00
2022-11-07T09:22:06.250Z,392.00
2022-11-07T09:23:06.271Z,384.00
2022-11-07T09:24:06.232Z,372.00
2022-11-07T09:25:06.234Z,368.00
2022-11-07T09:26:06.305Z,360.00
2022-11-07T09:27:06.190Z,376.00
2022-11-07T09:28:06.179Z,396.00
2022-11-07T09:29:06.166Z,428.00
2022-11-07T09:30:06.175Z,432.00
2022-11-07T09:31:06.147Z,448.00
2022-11-07T09:32:30.571Z,456.00
2022-11-07T09:33:06.124Z,456.00
2022-11-07T09:34:06.110Z,452.00
2022-11-07T09:35:06.126Z,448.00
2022-11-07T09:36:06.102Z,428.00
2022-11-07T09:37:06.113Z,388.00
2022-11-07T09:38:06.063Z,348.00
2022-11-07T09:39:06.089Z,356.00
2022-11-07T09:40:06.044Z,380.00
2022-11-07T09:41:06.035Z,432.00
2022-11-07T09:42:06.040Z,436.00
2022-11-07T09:43:06.060Z,468.00
2022-11-07T09:44:06.012Z,464.00
2022-11-07T09:45:05.996Z,464.00
2022-11-07T09:46:05.977Z,444.00
2022-11-07T09:47:05.966Z,468.00
2022-11-07T09:48:05.996Z,484.00
2022-11-07T09:49:05.946Z,468.00
2022-11-07T09:50:05.939Z,424.00
2022-11-07T09:51:05.919Z,460.00
2022-11-07T09:52:05.926Z,408.00
2022-11-07T09:53:05.923Z,396.00
2022-11-07T09:54:05.889Z,424.00
2022-11-07T09:55:05.882Z,380.00
2022-11-07T09:56:05.897Z,452.00
2022-11-07T09:57:07.216Z,436.00
2022-11-07T09:58:05.851Z,416.00
2022-11-07T09:59:11.091Z,432.00
2022-11-07T10:00:05.852Z,444.00
2022-11-07T10:01:06.053Z,392.00
2022-11-07T10:02:05.854Z,408.00
2022-11-07T10:03:05.812Z,468.00
2022-11-07T10:05:06.778Z,456.00
2022-11-07T10:06:05.756Z,508.00
2022-11-07T10:07:05.741Z,516.00
2022-11-07T10:08:05.762Z,508.00
2022-11-07T10:09:05.723Z,508.00
2022-11-07T10:10:05.744Z,432.00
2022-11-07T10:11:05.698Z,408.00
2022-11-07T10:12:05.689Z,420.00
2022-11-07T10:13:05.686Z,392.00
2022-11-07T10:14:05.699Z,312.00
2022-11-07T10:15:05.671Z,280.00
2022-11-07T10:16:05.641Z,300.00
2022-11-07T10:17:05.635Z,324.00
2022-11-07T10:18:05.622Z,352.00
2022-11-07T10:19:05.628Z,324.00
2022-11-07T10:20:05.715Z,320.00
2022-11-07T10:21:31.297Z,320.00
2022-11-07T10:22:05.579Z,336.00
2022-11-07T10:23:05.630Z,316.00
2022-11-07T10:24:05.560Z,356.00
2022-11-07T10:25:05.543Z,360.00
2022-11-07T10:26:05.545Z,360.00
2022-11-07T10:27:05.550Z,388.00
2022-11-07T10:28:05.509Z,364.00
2022-11-07T10:29:05.509Z,380.00
2022-11-07T10:30:05.506Z,384.00
2022-11-07T10:31:05.521Z,404.00
2022-11-07T10:32:05.497Z,436.00
2022-11-07T10:33:05.454Z,500.00
2022-11-07T10:34:05.444Z,516.00
2022-11-07T10:35:05.446Z,496.00
2022-11-07T10:36:05.437Z,492.00
2022-11-07T10:37:05.426Z,500.00
2022-11-07T10:38:05.411Z,408.00
2022-11-07T10:39:05.427Z,412.00
2022-11-07T10:40:10.983Z,356.00
2022-11-07T10:41:05.367Z,356.00
2022-11-07T10:42:05.355Z,352.00
2022-11-07T10:43:05.403Z,356.00
2022-11-07T10:44:05.443Z,360.00
2022-11-07T10:45:05.335Z,368.00
2022-11-07T10:46:05.314Z,372.00
2022-11-07T10:47:05.318Z,376.00
2022-11-07T10:48:05.297Z,372.00
2022-11-07T10:49:05.310Z,376.00
2022-11-07T10:50:05.309Z,384.00
2022-11-07T10:51:05.290Z,392.00
2022-11-07T10:52:05.265Z,396.00
2022-11-07T10:53:05.241Z,396.00
2022-11-07T10:54:05.241Z,404.00
2022-11-07T10:55:05.236Z,408.00
2022-11-07T10:56:05.206Z,408.00
2022-11-07T10:57:05.204Z,408.00
2022-11-07T10:58:05.180Z,404.00
2022-11-07T10:59:05.175Z,396.00
2022-11-07T11:00:05.248Z,388.00
2022-11-07T11:01:05.249Z,384.00
2022-11-07T11:02:05.235Z,380.00
2022-11-07T11:03:05.124Z,372.00
2022-11-07T11:04:06.067Z,372.00
2022-11-07T11:05:05.188Z,364.00
2022-11-07T11:06:05.104Z,364.00
2022-11-07T11:07:05.077Z,364.00
2022-11-07T11:08:05.142Z,364.00
2022-11-07T11:09:05.143Z,368.00
2022-11-07T11:10:05.079Z,376.00
2022-11-07T11:11:05.034Z,384.00
2022-11-07T11:12:05.080Z,388.00
2022-11-07T11:13:05.011Z,388.00
2022-11-07T11:14:05.065Z,384.00
2022-11-07T11:15:05.026Z,380.00
2022-11-07T11:16:12.591Z,380.00
2022-11-07T11:17:04.994Z,380.00
2022-11-07T11:18:04.955Z,376.00
2022-11-07T11:19:04.991Z,376.00
2022-11-07T11:20:04.942Z,380.00
2022-11-07T11:21:04.931Z,384.00
2022-11-07T11:22:09.514Z,380.00
2022-11-07T11:23:04.910Z,376.00
2022-11-07T11:24:04.931Z,376.00
2022-11-07T11:25:04.888Z,380.00
2022-11-07T11:26:04.873Z,372.00
2022-11-07T11:27:04.884Z,364.00
2022-11-07T11:28:04.860Z,356.00
2022-11-07T11:29:04.872Z,348.00
2022-11-07T11:30:04.822Z,336.00
2022-11-07T11:31:04.812Z,332.00
2022-11-07T11:32:04.823Z,328.00
2022-11-07T11:33:04.788Z,320.00
2022-11-07T11:34:04.795Z,316.00
2022-11-07T11:35:04.801Z,320.00
2022-11-07T11:36:04.769Z,320.00
2022-11-07T11:37:04.743Z,320.00
2022-11-07T11:38:04.734Z,324.00
2022-11-07T11:39:04.726Z,324.00
2022-11-07T11:40:04.747Z,336.00
2022-11-07T11:41:10.306Z,332.00
2022-11-07T11:42:04.694Z,332.00
2022-11-07T11:43:04.677Z,328.00
2022-11-07T11:44:04.667Z,328.00
2022-11-07T11:45:04.675Z,312.00
2022-11-07T11:46:04.659Z,296.00
2022-11-07T11:47:04.635Z,292.00
2022-11-07T11:48:04.625Z,288.00
2022-11-07T11:49:04.635Z,288.00
2022-11-07T11:50:04.603Z,280.00
2022-11-07T11:51:04.600Z,284.00
2022-11-07T11:52:04.578Z,284.00
2022-11-07T11:53:04.597Z,280.00
2022-11-07T11:54:04.559Z,280.00
2022-11-07T11:55:04.555Z,268.00
2022-11-07T11:56:04.567Z,260.00
2022-11-07T11:57:04.538Z,248.00
2022-11-07T11:58:04.511Z,236.00
2022-11-07T11:59:04.505Z,224.00
2022-11-07T12:00:04.504Z,208.00
2022-11-07T12:01:04.498Z,200.00
2022-11-07T12:02:04.586Z,196.00
2022-11-07T12:03:04.463Z,188.00
2022-11-07T12:04:07.960Z,192.00
2022-11-07T12:05:04.457Z,188.00
2022-11-07T12:06:04.447Z,188.00
2022-11-07T12:07:04.413Z,184.00
2022-11-07T12:08:04.413Z,184.00
2022-11-07T12:09:04.414Z,184.00
2022-11-07T12:10:04.408Z,192.00
2022-11-07T12:11:04.379Z,188.00
2022-11-07T12:12:04.420Z,184.00
2022-11-07T12:13:04.349Z,192.00
2022-11-07T12:14:04.344Z,196.00
2022-11-07T12:15:04.349Z,200.00
2022-11-07T12:16:04.326Z,204.00
2022-11-07T12:17:04.327Z,196.00
2022-11-07T12:18:04.298Z,188.00
2022-11-07T12:19:04.289Z,172.00
2022-11-07T12:20:04.285Z,160.00
2022-11-07T12:21:04.289Z,156.00
2022-11-07T12:22:04.247Z,152.00
2022-11-07T12:23:04.249Z,148.00
2022-11-07T12:24:04.272Z,144.00
2022-11-07T12:25:04.230Z,144.00
2022-11-07T12:26:04.227Z,140.00
2022-11-07T12:27:04.223Z,132.00
2022-11-07T12:28:04.202Z,128.00
2022-11-07T12:29:04.191Z,124.00
2022-11-07T12:30:04.192Z,132.00
2022-11-07T12:31:04.175Z,136.00
2022-11-07T12:32:04.155Z,140.00
2022-11-07T12:33:04.162Z,144.00
2022-11-07T12:34:04.160Z,136.00
2022-11-07T12:35:04.105Z,128.00
2022-11-07T12:36:04.094Z,120.00
2022-11-07T12:37:04.092Z,112.00
2022-11-07T12:38:04.103Z,112.00
2022-11-07T12:39:04.109Z,124.00
2022-11-07T12:40:04.049Z,128.00
2022-11-07T12:41:04.041Z,136.00
2022-11-07T12:42:04.035Z,144.00
2022-11-07T12:43:04.151Z,156.00
2022-11-07T12:44:04.018Z,164.00
2022-11-07T12:45:04.025Z,160.00
2022-11-07T12:46:04.008Z,156.00
2022-11-07T12:47:03.979Z,148.00
2022-11-07T12:48:06.264Z,152.00
2022-11-07T12:49:04.133Z,160.00
2022-11-07T12:50:03.973Z,160.00
2022-11-07T12:51:03.929Z,160.00
2022-11-07T12:52:03.923Z,164.00
2022-11-07T12:53:03.924Z,180.00
2022-11-07T12:54:03.897Z,192.00
2022-11-07T12:55:03.941Z,192.00